createdAt,value
2019-06-20T00:00:48.291Z,996.94
2019-06-20T00:01:48.212Z,996.91
2019-06-20T00:02:48.198Z,996.92
2019-06-20T00:03:48.244Z,996.84
2019-06-20T00:04:48.202Z,996.82
2019-06-20T00:05:48.173Z,996.83
2019-06-20T00:06:48.165Z,996.88
2019-06-20T00:07:48.139Z,996.91
2019-06-20T00:08:48.145Z,996.96
2019-06-20T00:09:48.509Z,996.98
2019-06-20T00:10:48.326Z,997.02
2019-06-20T00:11:48.242Z,997.08
2019-06-20T00:12:59.905Z,997.00
2019-06-20T00:13:49.097Z,997.02
2019-06-20T00:14:48.148Z,997.01
2019-06-20T00:15:48.080Z,997.04
2019-06-20T00:16:48.155Z,997.05
2019-06-20T00:17:48.013Z,997.07
2019-06-20T00:18:48.040Z,997.10
2019-06-20T00:19:47.978Z,997.21
2019-06-20T00:20:47.995Z,997.23
2019-06-20T00:21:48.483Z,997.25
2019-06-20T00:22:47.954Z,997.29
2019-06-20T00:23:47.998Z,997.31
2019-06-20T00:24:48.063Z,997.35
2019-06-20T00:25:47.961Z,997.30
2019-06-20T00:26:47.996Z,997.31
2019-06-20T00:27:48.288Z,997.26
2019-06-20T00:28:47.959Z,997.26
2019-06-20T00:29:49.072Z,997.21
2019-06-20T00:30:47.923Z,997.15
2019-06-20T00:31:47.892Z,997.22
2019-06-20T00:33:08.980Z,997.18
2019-06-20T00:33:47.859Z,997.22
2019-06-20T00:34:48.193Z,997.24
2019-06-20T00:35:47.873Z,997.25
2019-06-20T00:36:51.183Z,997.29
2019-06-20T00:37:47.820Z,997.32
2019-06-20T00:38:47.888Z,997.31
2019-06-20T00:39:47.797Z,997.36
2019-06-20T00:40:47.863Z,997.39
2019-06-20T00:41:48.045Z,997.42
2019-06-20T00:42:54.449Z,997.41
2019-06-20T00:43:47.785Z,997.42
2019-06-20T00:44:47.797Z,997.39
2019-06-20T00:45:48.093Z,997.40
2019-06-20T00:46:48.071Z,997.34
2019-06-20T00:47:47.749Z,997.39
2019-06-20T00:48:47.818Z,997.34
2019-06-20T00:49:47.674Z,997.27
2019-06-20T00:50:47.767Z,997.18
2019-06-20T00:51:48.006Z,997.06
2019-06-20T00:52:47.634Z,997.11
2019-06-20T00:53:47.675Z,997.15
2019-06-20T00:54:47.643Z,997.13
2019-06-20T00:55:47.609Z,997.14
2019-06-20T00:56:47.679Z,997.12
2019-06-20T00:57:47.705Z,997.08
2019-06-20T00:58:47.627Z,997.01
2019-06-20T00:59:47.597Z,997.02
2019-06-20T01:00:47.773Z,997.00
2019-06-20T01:02:03.548Z,997.07
2019-06-20T01:02:47.687Z,997.10
2019-06-20T01:03:47.800Z,997.09
2019-06-20T01:04:47.668Z,997.04
2019-06-20T01:06:58.122Z,997.01
2019-06-20T01:08:05.867Z,997.03
2019-06-20T01:08:57.530Z,997.03
2019-06-20T01:09:57.548Z,997.08
2019-06-20T01:10:57.524Z,997.19
2019-06-20T01:11:57.504Z,997.23
2019-06-20T01:12:57.544Z,997.21
2019-06-20T01:13:57.774Z,997.28
2019-06-20T01:14:57.477Z,997.24
2019-06-20T01:15:57.494Z,997.28
2019-06-20T01:16:57.536Z,997.33
2019-06-20T01:17:57.446Z,997.34
2019-06-20T01:18:57.475Z,997.40
2019-06-20T01:19:58.354Z,997.41
2019-06-20T01:20:57.415Z,997.43
2019-06-20T01:21:57.412Z,997.46
2019-06-20T01:22:57.404Z,997.47
2019-06-20T01:23:57.384Z,997.50
2019-06-20T01:24:57.864Z,997.54
2019-06-20T01:25:57.644Z,997.60
2019-06-20T01:26:57.365Z,997.63
2019-06-20T01:27:57.365Z,997.62
2019-06-20T01:28:57.335Z,997.67
2019-06-20T01:29:57.335Z,997.67
2019-06-20T01:30:57.354Z,997.67
2019-06-20T01:31:57.304Z,997.69
2019-06-20T01:32:57.311Z,997.71
2019-06-20T01:33:57.285Z,997.67
2019-06-20T01:34:57.274Z,997.68
2019-06-20T01:35:57.265Z,997.68
2019-06-20T01:36:57.294Z,997.67
2019-06-20T01:37:57.525Z,997.70
2019-06-20T01:38:57.234Z,997.72
2019-06-20T01:39:57.224Z,997.70
2019-06-20T01:40:57.215Z,997.61
2019-06-20T01:41:57.205Z,997.56
2019-06-20T01:42:57.274Z,997.52
2019-06-20T01:43:57.184Z,997.51
2019-06-20T01:44:57.175Z,997.47
2019-06-20T01:45:57.163Z,997.49
2019-06-20T01:46:57.155Z,997.40
2019-06-20T01:47:57.145Z,997.41
2019-06-20T01:48:57.193Z,997.36
2019-06-20T01:49:57.404Z,997.40
2019-06-20T01:50:57.118Z,997.45
2019-06-20T01:51:57.199Z,997.52
2019-06-20T01:52:57.095Z,997.56
2019-06-20T01:53:57.079Z,997.53
2019-06-20T01:54:57.106Z,997.52
2019-06-20T01:55:57.081Z,997.58
2019-06-20T01:56:57.046Z,997.54
2019-06-20T01:57:57.036Z,997.51
2019-06-20T01:58:57.025Z,997.50
2019-06-20T01:59:57.016Z,997.49
2019-06-20T02:02:29.653Z,997.48
2019-06-20T02:03:29.593Z,997.44
2019-06-20T02:04:29.554Z,997.42
2019-06-20T02:05:29.537Z,997.36
2019-06-20T02:06:29.533Z,997.34
2019-06-20T02:07:29.524Z,997.28
2019-06-20T02:08:29.844Z,997.30
2019-06-20T02:09:29.514Z,997.32
2019-06-20T02:10:29.488Z,997.33
2019-06-20T02:11:29.473Z,997.35
2019-06-20T02:12:29.463Z,997.32
2019-06-20T02:13:29.457Z,997.39
2019-06-20T02:14:29.507Z,997.43
2019-06-20T02:15:29.431Z,997.41
2019-06-20T02:16:29.423Z,997.41
2019-06-20T02:17:29.411Z,997.37
2019-06-20T02:18:29.394Z,997.36
2019-06-20T02:19:29.392Z,997.32
2019-06-20T02:20:29.780Z,997.30
2019-06-20T02:21:29.366Z,997.32
2019-06-20T02:22:29.363Z,997.32
2019-06-20T02:23:29.353Z,997.36
2019-06-20T02:24:29.346Z,997.30
2019-06-20T02:25:29.328Z,997.31
2019-06-20T02:26:29.353Z,997.28
2019-06-20T02:27:29.594Z,997.31
2019-06-20T02:28:29.304Z,997.27
2019-06-20T02:29:29.284Z,997.28
2019-06-20T02:30:29.276Z,997.25
2019-06-20T02:31:29.265Z,997.25
2019-06-20T02:32:29.309Z,997.19
2019-06-20T02:33:29.264Z,997.19
2019-06-20T02:34:29.525Z,997.23
2019-06-20T02:35:29.224Z,997.23
2019-06-20T02:36:29.205Z,997.22
2019-06-20T02:37:29.203Z,997.16
2019-06-20T02:38:29.695Z,997.12
2019-06-20T02:39:29.174Z,997.10
2019-06-20T02:40:29.170Z,997.13
2019-06-20T02:41:29.463Z,997.14
2019-06-20T02:42:29.143Z,997.21
2019-06-20T02:43:29.133Z,997.18
2019-06-20T02:44:30.802Z,997.21
2019-06-20T02:45:29.114Z,997.22
2019-06-20T02:46:29.104Z,997.28
2019-06-20T02:47:29.093Z,997.31
2019-06-20T02:48:29.381Z,997.28
2019-06-20T02:49:29.073Z,997.35
2019-06-20T02:50:29.125Z,997.41
2019-06-20T02:51:29.054Z,997.40
2019-06-20T02:52:29.033Z,997.34
2019-06-20T02:53:29.151Z,997.34
2019-06-20T02:54:29.013Z,997.31
2019-06-20T02:55:29.313Z,997.34
2019-06-20T02:56:29.564Z,997.29
2019-06-20T02:57:28.985Z,997.36
2019-06-20T02:58:29.027Z,997.39
2019-06-20T02:59:28.994Z,997.39
2019-06-20T03:00:28.954Z,997.43
2019-06-20T03:01:29.000Z,997.44
2019-06-20T03:02:29.023Z,997.43
2019-06-20T03:03:28.925Z,997.48
2019-06-20T03:04:28.911Z,997.42
2019-06-20T03:05:28.947Z,997.48
2019-06-20T03:06:28.903Z,997.53
2019-06-20T03:07:28.988Z,997.65
2019-06-20T03:08:29.314Z,997.70
2019-06-20T03:09:28.914Z,997.59
2019-06-20T03:10:28.843Z,997.62
2019-06-20T03:11:28.842Z,997.62
2019-06-20T03:12:28.823Z,997.60
2019-06-20T03:13:28.813Z,997.65
2019-06-20T03:14:41.779Z,997.65
2019-06-20T03:15:29.803Z,997.67
2019-06-20T03:16:28.792Z,997.65
2019-06-20T03:17:28.779Z,997.70
2019-06-20T03:18:28.764Z,997.73
2019-06-20T03:19:28.753Z,997.72
2019-06-20T03:20:28.793Z,997.75
2019-06-20T03:21:29.213Z,997.77
2019-06-20T03:22:28.723Z,997.88
2019-06-20T03:23:28.713Z,997.86
2019-06-20T03:24:28.693Z,997.83
2019-06-20T03:25:28.696Z,997.88
2019-06-20T03:26:28.712Z,997.87
2019-06-20T03:27:28.678Z,997.84
2019-06-20T03:28:28.653Z,997.87
2019-06-20T03:29:28.653Z,997.87
2019-06-20T03:30:28.643Z,997.91
2019-06-20T03:31:28.623Z,997.96
2019-06-20T03:32:29.092Z,997.97
2019-06-20T03:33:28.901Z,997.91
2019-06-20T03:34:28.592Z,997.89
2019-06-20T03:35:28.582Z,997.85
2019-06-20T03:36:28.564Z,997.84
2019-06-20T03:37:28.583Z,997.85
2019-06-20T03:38:28.583Z,997.89
2019-06-20T03:39:28.793Z,997.92
2019-06-20T03:40:28.525Z,997.92
2019-06-20T03:41:28.522Z,997.92
2019-06-20T03:42:28.514Z,997.94
2019-06-20T03:43:28.494Z,997.96
2019-06-20T03:44:28.513Z,998.01
2019-06-20T03:45:28.762Z,997.96
2019-06-20T03:46:28.462Z,997.93
2019-06-20T03:47:28.452Z,997.98
2019-06-20T03:48:28.443Z,997.96
2019-06-20T03:49:28.431Z,997.96
2019-06-20T03:50:28.910Z,997.99
2019-06-20T03:51:28.413Z,997.97
2019-06-20T03:52:28.403Z,997.96
2019-06-20T03:53:28.392Z,997.97
2019-06-20T03:54:28.385Z,998.00
2019-06-20T03:55:28.362Z,998.03
2019-06-20T03:56:28.400Z,998.03
2019-06-20T03:57:28.633Z,997.99
2019-06-20T03:58:28.333Z,997.99
2019-06-20T03:59:28.322Z,998.04
2019-06-20T04:00:28.323Z,998.04
2019-06-20T04:01:28.314Z,998.04
2019-06-20T04:02:28.322Z,998.05
2019-06-20T04:03:28.284Z,998.05
2019-06-20T04:04:28.553Z,998.07
2019-06-20T04:05:28.268Z,998.07
2019-06-20T04:06:28.683Z,998.12
2019-06-20T04:07:28.251Z,998.10
2019-06-20T04:08:28.282Z,998.15
2019-06-20T04:09:28.225Z,998.14
2019-06-20T04:10:28.210Z,998.16
2019-06-20T04:11:28.493Z,998.11
2019-06-20T04:12:28.193Z,998.14
2019-06-20T04:13:28.184Z,998.13
2019-06-20T04:14:28.202Z,998.15
2019-06-20T04:15:28.159Z,998.16
2019-06-20T04:16:28.145Z,998.19
2019-06-20T04:17:28.147Z,998.19
2019-06-20T04:18:28.412Z,998.26
2019-06-20T04:19:28.125Z,998.23
2019-06-20T04:20:28.152Z,998.23
2019-06-20T04:21:28.093Z,998.26
2019-06-20T04:22:28.082Z,998.26
2019-06-20T04:23:28.145Z,998.26
2019-06-20T04:24:28.192Z,998.29
2019-06-20T04:25:28.346Z,998.27
2019-06-20T04:26:28.123Z,998.28
2019-06-20T04:27:28.035Z,998.26
2019-06-20T04:28:28.023Z,998.27
2019-06-20T04:29:28.013Z,998.28
2019-06-20T04:30:28.004Z,998.33
2019-06-20T04:31:28.002Z,998.34
2019-06-20T04:32:28.026Z,998.38
2019-06-20T04:33:27.994Z,998.37
2019-06-20T04:34:27.959Z,998.35
2019-06-20T04:35:27.950Z,998.38
2019-06-20T04:36:27.941Z,998.39
2019-06-20T04:37:27.934Z,998.41
2019-06-20T04:38:28.274Z,998.44
2019-06-20T04:39:27.943Z,998.39
2019-06-20T04:40:27.902Z,998.46
2019-06-20T04:41:27.889Z,998.43
2019-06-20T04:42:27.892Z,998.44
2019-06-20T04:43:27.872Z,998.47
2019-06-20T04:44:27.954Z,998.45
2019-06-20T04:45:35.122Z,998.49
2019-06-20T04:46:28.852Z,998.47
2019-06-20T04:47:27.832Z,998.51
2019-06-20T04:48:27.813Z,998.50
2019-06-20T04:49:27.904Z,998.52
2019-06-20T04:50:27.933Z,998.49
2019-06-20T04:51:27.791Z,998.52
2019-06-20T04:52:27.784Z,998.55
2019-06-20T04:53:27.765Z,998.56
2019-06-20T04:54:27.753Z,998.59
2019-06-20T04:55:27.742Z,998.61
2019-06-20T04:56:27.786Z,998.60
2019-06-20T04:57:28.030Z,998.64
2019-06-20T04:58:27.719Z,998.65
2019-06-20T04:59:27.692Z,998.64
2019-06-20T05:00:27.692Z,998.68
2019-06-20T05:01:27.674Z,998.66
2019-06-20T05:02:27.721Z,998.69
2019-06-20T05:03:27.654Z,998.62
2019-06-20T05:04:27.947Z,998.64
2019-06-20T05:05:27.635Z,998.63
2019-06-20T05:06:27.622Z,998.62
2019-06-20T05:07:27.620Z,998.62
2019-06-20T05:08:27.643Z,998.58
2019-06-20T05:09:27.592Z,998.58
2019-06-20T05:10:27.586Z,998.65
2019-06-20T05:11:27.574Z,998.60
2019-06-20T05:12:27.575Z,998.62
2019-06-20T05:13:27.556Z,998.62
2019-06-20T05:14:27.588Z,998.65
2019-06-20T05:15:27.530Z,998.72
2019-06-20T05:16:27.803Z,998.68
2019-06-20T05:17:27.511Z,998.71
2019-06-20T05:18:27.513Z,998.71
2019-06-20T05:19:27.490Z,998.73
2019-06-20T05:20:27.543Z,998.73
2019-06-20T05:21:27.479Z,998.72
2019-06-20T05:22:27.464Z,998.75
2019-06-20T05:23:27.443Z,998.74
2019-06-20T05:24:27.441Z,998.77
2019-06-20T05:25:27.429Z,998.82
2019-06-20T05:26:27.463Z,998.78
2019-06-20T05:27:27.413Z,998.81
2019-06-20T05:28:27.694Z,998.80
2019-06-20T05:29:27.384Z,998.82
2019-06-20T05:30:27.373Z,998.81
2019-06-20T05:31:27.364Z,998.82
2019-06-20T05:32:27.383Z,998.81
2019-06-20T05:33:27.342Z,998.84
2019-06-20T05:34:27.334Z,998.84
2019-06-20T05:35:27.323Z,998.86
2019-06-20T05:36:27.310Z,998.88
2019-06-20T05:37:27.295Z,998.89
2019-06-20T05:38:27.342Z,998.92
2019-06-20T05:39:27.292Z,998.84
2019-06-20T05:40:27.683Z,998.84
2019-06-20T05:41:27.311Z,998.88
2019-06-20T05:42:27.249Z,998.85
2019-06-20T05:43:27.232Z,998.91
2019-06-20T05:44:27.279Z,998.88
2019-06-20T05:45:27.223Z,998.88
2019-06-20T05:46:27.243Z,998.90
2019-06-20T05:47:27.483Z,998.93
2019-06-20T05:48:27.223Z,998.91
2019-06-20T05:49:27.173Z,998.90
2019-06-20T05:50:27.205Z,998.90
2019-06-20T05:51:27.163Z,998.88
2019-06-20T05:52:27.204Z,998.96
2019-06-20T05:53:27.134Z,998.92
2019-06-20T05:54:27.412Z,998.97
2019-06-20T05:55:27.116Z,998.96
2019-06-20T05:56:27.163Z,998.95
2019-06-20T05:57:27.125Z,998.96
2019-06-20T05:58:27.179Z,998.94
2019-06-20T05:59:27.134Z,998.95
2019-06-20T06:00:27.096Z,998.96
2019-06-20T06:01:27.342Z,998.92
2019-06-20T06:02:27.095Z,998.96
2019-06-20T06:03:27.152Z,998.96
2019-06-20T06:04:27.023Z,998.98
2019-06-20T06:05:27.004Z,998.91
2019-06-20T06:06:27.064Z,998.88
2019-06-20T06:07:26.984Z,998.96
2019-06-20T06:08:27.321Z,998.97
2019-06-20T06:09:27.221Z,998.98
2019-06-20T06:10:26.954Z,998.98
2019-06-20T06:11:26.943Z,998.99
2019-06-20T06:12:27.439Z,999.04
2019-06-20T06:13:26.926Z,998.99
2019-06-20T06:14:26.962Z,999.01
2019-06-20T06:15:27.190Z,999.01
2019-06-20T06:16:28.422Z,999.00
2019-06-20T06:17:26.894Z,999.00
2019-06-20T06:18:26.874Z,999.01
2019-06-20T06:19:26.853Z,999.01
2019-06-20T06:20:26.884Z,998.99
2019-06-20T06:21:26.845Z,998.98
2019-06-20T06:22:27.134Z,999.00
2019-06-20T06:23:26.815Z,998.96
2019-06-20T06:24:26.805Z,999.01
2019-06-20T06:25:26.802Z,998.98
2019-06-20T06:26:26.856Z,999.03
2019-06-20T06:27:26.773Z,999.02
2019-06-20T06:28:26.785Z,999.03
2019-06-20T06:29:26.753Z,999.05
2019-06-20T06:30:26.750Z,999.06
2019-06-20T06:31:26.734Z,999.05
2019-06-20T06:32:39.502Z,999.08
2019-06-20T06:33:27.712Z,999.09
2019-06-20T06:34:26.984Z,999.06
2019-06-20T06:35:26.686Z,999.05
2019-06-20T06:36:26.680Z,999.06
2019-06-20T06:37:26.673Z,999.03
2019-06-20T06:38:26.698Z,999.02
2019-06-20T06:39:26.663Z,999.01
2019-06-20T06:40:26.651Z,999.00
2019-06-20T06:41:26.633Z,998.95
2019-06-20T06:42:26.843Z,998.98
2019-06-20T06:43:26.603Z,998.97
2019-06-20T06:44:26.641Z,998.94
2019-06-20T06:45:26.594Z,998.98
2019-06-20T06:46:42.537Z,998.98
2019-06-20T06:47:27.562Z,998.99
2019-06-20T06:48:26.563Z,999.01
2019-06-20T06:49:26.544Z,999.01
2019-06-20T06:50:26.603Z,998.97
2019-06-20T06:51:26.548Z,998.99
2019-06-20T06:52:26.513Z,999.03
2019-06-20T06:53:26.554Z,999.01
2019-06-20T06:54:26.492Z,999.02
2019-06-20T06:55:27.698Z,999.06
2019-06-20T06:56:26.504Z,999.02
2019-06-20T06:57:26.455Z,999.03
2019-06-20T06:58:26.733Z,999.03
2019-06-20T06:59:26.463Z,999.00
2019-06-20T07:00:26.420Z,999.03
2019-06-20T07:01:26.428Z,999.03
2019-06-20T07:02:26.451Z,999.02
2019-06-20T07:03:26.384Z,999.05
2019-06-20T07:04:26.385Z,999.08
2019-06-20T07:05:26.784Z,999.05
2019-06-20T07:06:26.603Z,999.08
2019-06-20T07:07:26.343Z,999.13
2019-06-20T07:08:26.377Z,999.12
2019-06-20T07:09:26.322Z,999.15
2019-06-20T07:10:26.661Z,999.14
2019-06-20T07:11:26.326Z,999.19
2019-06-20T07:12:26.313Z,999.13
2019-06-20T07:13:26.273Z,999.19
2019-06-20T07:14:26.318Z,999.17
2019-06-20T07:15:26.256Z,999.22
2019-06-20T07:16:26.254Z,999.18
2019-06-20T07:17:26.513Z,999.19
2019-06-20T07:18:26.267Z,999.21
2019-06-20T07:19:26.212Z,999.24
2019-06-20T07:20:26.235Z,999.26
2019-06-20T07:21:26.209Z,999.23
2019-06-20T07:22:26.199Z,999.25
2019-06-20T07:23:26.223Z,999.26
2019-06-20T07:24:26.556Z,999.25
2019-06-20T07:25:26.149Z,999.23
2019-06-20T07:26:26.181Z,999.24
2019-06-20T07:27:26.190Z,999.24
2019-06-20T07:28:26.112Z,999.24
2019-06-20T07:29:26.106Z,999.30
2019-06-20T07:30:27.015Z,999.27
2019-06-20T07:31:26.464Z,999.29
2019-06-20T07:32:26.125Z,999.26
2019-06-20T07:33:26.126Z,999.25
2019-06-20T07:34:26.046Z,999.33
2019-06-20T07:35:26.075Z,999.28
2019-06-20T07:36:26.037Z,999.31
2019-06-20T07:37:26.026Z,999.35
2019-06-20T07:38:26.134Z,999.34
2019-06-20T07:39:26.014Z,999.26
2019-06-20T07:40:25.995Z,999.31
2019-06-20T07:41:25.979Z,999.22
2019-06-20T07:42:25.965Z,999.21
2019-06-20T07:43:25.954Z,999.23
2019-06-20T07:44:26.336Z,999.24
2019-06-20T07:45:27.354Z,999.32
2019-06-20T07:46:25.919Z,999.30
2019-06-20T07:47:25.912Z,999.25
2019-06-20T07:48:25.903Z,999.25
2019-06-20T07:49:25.885Z,999.28
2019-06-20T07:50:26.002Z,999.24
2019-06-20T07:51:26.333Z,999.27
2019-06-20T07:52:25.870Z,999.26
2019-06-20T07:53:25.856Z,999.19
2019-06-20T07:54:25.859Z,999.19
2019-06-20T07:55:25.828Z,999.20
2019-06-20T07:56:25.866Z,999.25
2019-06-20T07:57:25.908Z,999.23
2019-06-20T07:58:26.130Z,999.17
2019-06-20T07:59:25.849Z,999.15
2019-06-20T08:00:25.767Z,999.24
2019-06-20T08:01:25.815Z,999.30
2019-06-20T08:02:25.796Z,999.18
2019-06-20T08:03:25.746Z,999.25
2019-06-20T08:04:25.811Z,999.25
2019-06-20T08:05:25.760Z,999.29
2019-06-20T08:06:25.755Z,999.32
2019-06-20T08:07:25.815Z,999.25
2019-06-20T08:08:25.828Z,999.33
2019-06-20T08:09:40.589Z,999.36
2019-06-20T08:10:26.682Z,999.31
2019-06-20T08:11:25.653Z,999.31
2019-06-20T08:12:25.647Z,999.31
2019-06-20T08:13:25.635Z,999.33
2019-06-20T08:14:25.674Z,999.38
2019-06-20T08:15:25.615Z,999.36
2019-06-20T08:16:25.628Z,999.46
2019-06-20T08:17:35.177Z,999.43
2019-06-20T08:18:26.593Z,999.47
2019-06-20T08:19:25.582Z,999.44
2019-06-20T08:20:25.686Z,999.33
2019-06-20T08:21:25.566Z,999.36
2019-06-20T08:22:25.846Z,999.44
2019-06-20T08:23:25.654Z,999.45
2019-06-20T08:24:25.523Z,999.48
2019-06-20T08:25:25.527Z,999.45
2019-06-20T08:26:25.543Z,999.51
2019-06-20T08:27:25.531Z,999.49
2019-06-20T08:28:25.506Z,999.46
2019-06-20T08:29:25.456Z,999.50
2019-06-20T08:30:25.450Z,999.52
2019-06-20T08:31:25.436Z,999.48
2019-06-20T08:32:25.507Z,999.53
2019-06-20T08:33:25.440Z,999.61
2019-06-20T08:34:25.709Z,999.62
2019-06-20T08:35:25.404Z,999.60
2019-06-20T08:36:25.397Z,999.60
2019-06-20T08:37:25.516Z,999.64
2019-06-20T08:38:25.427Z,999.63
2019-06-20T08:39:29.164Z,999.66
2019-06-20T08:40:25.347Z,999.68
2019-06-20T08:41:25.337Z,999.62
2019-06-20T08:42:25.338Z,999.62
2019-06-20T08:43:25.332Z,999.62
2019-06-20T08:44:25.403Z,999.62
2019-06-20T08:45:25.303Z,999.60
2019-06-20T08:46:25.579Z,999.63
2019-06-20T08:47:25.316Z,999.64
2019-06-20T08:48:25.319Z,999.52
2019-06-20T08:49:25.247Z,999.57
2019-06-20T08:50:25.276Z,999.66
2019-06-20T08:51:25.257Z,999.57
2019-06-20T08:52:25.240Z,999.59
2019-06-20T08:53:25.212Z,999.57
2019-06-20T08:54:25.197Z,999.62
2019-06-20T08:55:25.184Z,999.53
2019-06-20T08:56:25.916Z,999.53
2019-06-20T08:57:25.166Z,999.56
2019-06-20T08:58:25.157Z,999.63
2019-06-20T08:59:25.577Z,999.57
2019-06-20T09:00:25.179Z,999.65
2019-06-20T09:01:25.137Z,999.66
2019-06-20T09:02:25.236Z,999.64
2019-06-20T09:03:25.105Z,999.71
2019-06-20T09:04:25.132Z,999.66
2019-06-20T09:05:25.099Z,999.68
2019-06-20T09:06:25.409Z,999.72
2019-06-20T09:07:25.058Z,999.71
2019-06-20T09:08:25.097Z,999.77
2019-06-20T09:09:25.046Z,999.74
2019-06-20T09:10:25.018Z,999.76
2019-06-20T09:11:25.029Z,999.76
2019-06-20T09:12:25.008Z,999.64
2019-06-20T09:13:25.467Z,999.67
2019-06-20T09:14:25.058Z,999.63
2019-06-20T09:15:24.991Z,999.58
2019-06-20T09:16:25.142Z,999.63
2019-06-20T09:17:24.961Z,999.67
2019-06-20T09:18:24.958Z,999.57
2019-06-20T09:19:24.943Z,999.64
2019-06-20T09:20:25.348Z,999.55
2019-06-20T09:21:24.913Z,999.65
2019-06-20T09:22:24.958Z,999.72
2019-06-20T09:23:24.909Z,999.64
2019-06-20T09:24:24.889Z,999.63
2019-06-20T09:25:24.868Z,999.62
2019-06-20T09:26:24.910Z,999.60
2019-06-20T09:27:25.191Z,999.65
2019-06-20T09:28:24.991Z,999.67
2019-06-20T09:29:24.854Z,999.67
2019-06-20T09:30:24.820Z,999.66
2019-06-20T09:31:24.809Z,999.72
2019-06-20T09:32:24.878Z,999.68
2019-06-20T09:33:24.875Z,999.67
2019-06-20T09:34:25.818Z,999.75
2019-06-20T09:35:24.767Z,999.66
2019-06-20T09:36:24.856Z,999.69
2019-06-20T09:37:24.755Z,999.72
2019-06-20T09:38:24.781Z,999.67
2019-06-20T09:39:24.759Z,999.74
2019-06-20T09:40:25.628Z,999.75
2019-06-20T09:41:24.769Z,999.79
2019-06-20T09:42:24.742Z,999.79
2019-06-20T09:43:27.787Z,999.91
2019-06-20T09:44:24.721Z,999.90
2019-06-20T09:45:24.690Z,999.78
2019-06-20T09:46:25.083Z,999.84
2019-06-20T09:47:24.629Z,999.84
2019-06-20T09:48:24.625Z,999.79
2019-06-20T09:49:24.633Z,999.90
2019-06-20T09:50:24.684Z,999.83
2019-06-20T09:51:24.589Z,999.87
2019-06-20T09:52:24.606Z,999.82
2019-06-20T09:53:24.562Z,999.78
2019-06-20T09:54:24.587Z,999.83
2019-06-20T09:55:24.559Z,999.85
2019-06-20T09:56:24.592Z,999.85
2019-06-20T09:57:24.556Z,999.85
2019-06-20T09:58:24.972Z,999.89
2019-06-20T09:59:27.765Z,999.98
2019-06-20T10:00:24.532Z,999.97
2019-06-20T10:01:24.515Z,999.94
2019-06-20T10:02:24.539Z,999.99
2019-06-20T10:03:24.472Z,1000.03
2019-06-20T10:04:24.441Z,1000.04
2019-06-20T10:05:24.471Z,1000.10
2019-06-20T10:06:24.424Z,1000.04
2019-06-20T10:07:24.458Z,1000.04
2019-06-20T10:08:24.449Z,999.98
2019-06-20T10:09:24.502Z,999.93
2019-06-20T10:10:24.853Z,1000.02
2019-06-20T10:11:24.400Z,999.99
2019-06-20T10:12:24.374Z,999.96
2019-06-20T10:13:24.430Z,999.97
2019-06-20T10:14:24.397Z,999.97
2019-06-20T10:15:24.332Z,1000.00
2019-06-20T10:16:24.331Z,1000.09
2019-06-20T10:17:24.613Z,1000.09
2019-06-20T10:18:24.314Z,1000.04
2019-06-20T10:19:24.312Z,1000.09
2019-06-20T10:20:24.344Z,1000.07
2019-06-20T10:21:24.271Z,1000.09
2019-06-20T10:22:24.327Z,1000.03
2019-06-20T10:23:24.258Z,1000.04
2019-06-20T10:24:24.533Z,1000.08
2019-06-20T10:25:24.232Z,999.98
2019-06-20T10:26:25.054Z,1000.03
2019-06-20T10:27:24.205Z,1000.02
2019-06-20T10:28:24.226Z,999.96
2019-06-20T10:29:24.185Z,999.99
2019-06-20T10:30:24.174Z,999.99
2019-06-20T10:31:24.453Z,1000.04
2019-06-20T10:32:24.204Z,1000.11
2019-06-20T10:33:24.173Z,1000.11
2019-06-20T10:34:24.143Z,1000.07
2019-06-20T10:35:24.125Z,1000.09
2019-06-20T10:36:24.114Z,1000.14
2019-06-20T10:37:24.102Z,1000.10
2019-06-20T10:38:24.494Z,1000.09
2019-06-20T10:39:24.084Z,1000.08
2019-06-20T10:40:24.074Z,1000.10
2019-06-20T10:41:24.084Z,1000.09
2019-06-20T10:42:24.054Z,1000.19
2019-06-20T10:43:24.042Z,1000.16
2019-06-20T10:44:24.107Z,1000.16
2019-06-20T10:45:24.349Z,1000.22
2019-06-20T10:46:24.045Z,1000.24
2019-06-20T10:47:32.617Z,1000.22
2019-06-20T10:48:25.014Z,1000.27
2019-06-20T10:49:23.995Z,1000.23
2019-06-20T10:50:24.015Z,1000.26
2019-06-20T10:51:23.957Z,1000.18
2019-06-20T10:52:24.339Z,1000.22
2019-06-20T10:53:23.948Z,1000.25
2019-06-20T10:54:23.916Z,1000.25
2019-06-20T10:55:23.935Z,1000.16
2019-06-20T10:56:23.936Z,1000.24
2019-06-20T10:57:23.897Z,1000.17
2019-06-20T10:58:24.155Z,1000.21
2019-06-20T10:59:24.176Z,1000.29
2019-06-20T11:00:30.814Z,1000.27
2019-06-20T11:01:25.196Z,1000.18
2019-06-20T11:02:23.871Z,1000.19
2019-06-20T11:03:23.882Z,1000.16
2019-06-20T11:04:23.836Z,1000.20
2019-06-20T11:05:23.841Z,1000.20
2019-06-20T11:06:24.237Z,1000.19
2019-06-20T11:07:23.827Z,1000.13
2019-06-20T11:08:23.822Z,1000.19
2019-06-20T11:09:23.811Z,1000.18
2019-06-20T11:10:23.760Z,1000.19
2019-06-20T11:11:24.066Z,1000.24
2019-06-20T11:12:23.737Z,1000.24
2019-06-20T11:13:23.772Z,1000.21
2019-06-20T11:14:23.708Z,1000.22
2019-06-20T11:15:23.993Z,1000.25
2019-06-20T11:16:23.728Z,1000.26
2019-06-20T11:17:23.704Z,1000.27
2019-06-20T11:18:23.678Z,1000.21
2019-06-20T11:19:23.718Z,1000.21
2019-06-20T11:20:23.758Z,1000.29
2019-06-20T11:21:23.658Z,1000.25
2019-06-20T11:22:23.648Z,1000.31
2019-06-20T11:23:23.929Z,1000.36
2019-06-20T11:24:23.609Z,1000.32
2019-06-20T11:25:23.658Z,1000.32
2019-06-20T11:26:23.608Z,1000.31
2019-06-20T11:27:23.589Z,1000.32
2019-06-20T11:28:23.571Z,1000.35
2019-06-20T11:29:23.565Z,1000.44
2019-06-20T11:30:23.558Z,1000.38
2019-06-20T11:31:23.578Z,1000.45
2019-06-20T11:32:23.539Z,1000.40
2019-06-20T11:33:23.510Z,1000.34
2019-06-20T11:34:23.529Z,1000.30
2019-06-20T11:35:23.803Z,1000.31
2019-06-20T11:36:23.593Z,1000.27
2019-06-20T11:37:23.552Z,1000.29
2019-06-20T11:38:23.461Z,1000.26
2019-06-20T11:39:23.475Z,1000.31
2019-06-20T11:40:23.472Z,1000.28
2019-06-20T11:41:23.439Z,1000.40
2019-06-20T11:42:23.428Z,1000.30
2019-06-20T11:43:23.449Z,1000.38
2019-06-20T11:44:23.601Z,1000.31
2019-06-20T11:45:23.398Z,1000.34
2019-06-20T11:46:23.384Z,1000.33
2019-06-20T11:47:23.778Z,1000.36
2019-06-20T11:48:23.371Z,1000.26
2019-06-20T11:49:23.391Z,1000.36
2019-06-20T11:50:23.348Z,1000.37
2019-06-20T11:51:23.330Z,1000.39
2019-06-20T11:52:23.368Z,1000.28
2019-06-20T11:53:23.311Z,1000.30
2019-06-20T11:54:23.791Z,1000.35
2019-06-20T11:55:23.780Z,1000.32
2019-06-20T11:56:23.304Z,1000.32
2019-06-20T11:57:23.273Z,1000.38
2019-06-20T11:58:23.658Z,1000.31
2019-06-20T11:59:23.242Z,1000.37
2019-06-20T12:00:23.252Z,1000.36
2019-06-20T12:01:32.570Z,1000.31
2019-06-20T12:02:24.233Z,1000.27
2019-06-20T12:03:23.230Z,1000.24
2019-06-20T12:04:23.383Z,1000.19
2019-06-20T12:05:23.189Z,1000.18
2019-06-20T12:06:23.172Z,1000.15
2019-06-20T12:07:23.207Z,1000.17
2019-06-20T12:08:24.625Z,1000.26
2019-06-20T12:09:23.140Z,1000.16
2019-06-20T12:10:23.144Z,1000.18
2019-06-20T12:11:23.125Z,1000.13
2019-06-20T12:12:23.215Z,1000.17
2019-06-20T12:13:23.142Z,1000.13
2019-06-20T12:14:23.309Z,1000.22
2019-06-20T12:15:23.559Z,1000.13
2019-06-20T12:16:23.343Z,1000.16
2019-06-20T12:17:23.053Z,1000.14
2019-06-20T12:18:23.053Z,1000.10
2019-06-20T12:19:23.073Z,1000.15
2019-06-20T12:20:23.025Z,1000.15
2019-06-20T12:21:23.011Z,1000.15
2019-06-20T12:22:23.405Z,1000.20
2019-06-20T12:23:23.022Z,1000.11
2019-06-20T12:24:22.986Z,1000.13
2019-06-20T12:25:23.016Z,1000.08
2019-06-20T12:26:22.964Z,1000.11
2019-06-20T12:27:22.965Z,1000.07